LIRS

Details ICAO LIRS (GRS)
Name Grosseto-Maremma "Conrado Baccarini"
Region Italy
Timezone Europe/Rome (UTC+2.0)
Plans Departing 77
Arriving 79
Stats Elevation 15 ft / 5 m (AMSL)
Location 42.760400° 11.071700°
Runways 2
Magnetic Variation 3.057° E
Sunrise 2020-03-30 05:02:11 UTC / 2020-03-30 07:02:11 Local
Sunset 2020-03-30 17:40:19 UTC / 2020-03-30 19:40:19 Local
Advertisement - Login to hide

Runways

ID Width Length Bearing (true/mag) Surface Threshold Overrun Markings Lighting
03L 148 ft / 45 m 9,822 ft / 2,994 m 30.87° / 27.81° ASPHALT 318 ft / 97 m 0 ft / 0 m PREC-APP CENTERLINE EDGE THRESHOLD CALVERT TDZ REIL-OMNI
03R 79 ft / 24 m 7,736 ft / 2,358 m 30.86° / 27.80° ASPHALT 0 ft / 0 m 0 ft / 0 m PREC-APP
21L 79 ft / 24 m 7,736 ft / 2,358 m 210.87° / 207.81° ASPHALT 0 ft / 0 m 0 ft / 0 m PREC-APP
21R 148 ft / 45 m 9,822 ft / 2,994 m 210.88° / 207.83° ASPHALT 0 ft / 0 m 0 ft / 0 m APP CENTERLINE EDGE THRESHOLD REIL-OMNI

Map

Weather


0- 5 10 15 20 25 30 35+ Temperature / °C

Clouds and Precipitation
Forecast for 2020-03-30 06:00 UTC. Updated 7 minutes ago

Ground ~20,000 ft ~40,000 ft Winds

METAR

LIRS 300255Z 02003KT CAVOK 07/05 Q1011

TAF

Not found

Frequencies

Tower 128.10 MHz Grosseto tower
Approach 124.52 MHz Grosseto approach
Warning: Do not use this data for real-world aviation or navigation. No guarantee of current accuracy is given.